Main page
METAR-TAF:

METAR-TAF

Airports :

Chaudhary Charan Singh International Airport

Lucknow, India

latitude: 26-45N, longitude: 080-53E, elevation: 122 m

Current weather observation

The report was made 1 hour and 14 minutes ago, at 18:30 UTC
Calm wind
Temperature 14°C
Humidity 94%
Pressure 1014 hPa
Visibility: 1800 m
mist

METAR: VILK 011830Z 00000KT 1800 R27/2000 BR NSC 14/13 Q1014 BECMG 1500 BR

Time: 01:14 (19:44 UTC)

Forecast

The report was made 2 hours and 44 minutes ago, at 17:00 UTC
Forecast valid from 01 at 18 UTC to 02 at 03 UTC
Wind kt from the North
Visibility: 1500 m
mist
Becoming
from 02 at 00 UTC to 02 at 02 UTC
Visibility: 0600 m
fog

TAF: VILK 011700Z 0118/0203 00000KT 1500 BR NSC BECMG 0200/0202 0600 FG

Weather observations and forecasts of more than 4000 airports (METAR and TAF reports).

The available stations are represented by yellow and red dots on the map.

Hover mouse over dot to see the name of the station.

Then click to see weather observations and forecasts.

To change the map : click on the green buttons with a black cross to zoom in, on the green button with a dash to zoom out, or on the green arrows for adjacent maps.


METAR-TAF: